createdAt,value
2019-02-24T00:02:13.129Z,101721.78
2019-02-24T00:04:41.938Z,101726.16
2019-02-24T00:07:10.667Z,101722.28
2019-02-24T00:09:39.447Z,101723.06
2019-02-24T00:12:08.346Z,101727.43
2019-02-24T00:14:37.086Z,101727.43
2019-02-24T00:17:05.836Z,101726.76
2019-02-24T00:19:34.929Z,101727.63
2019-02-24T00:22:04.567Z,101727.63
2019-02-24T00:24:33.300Z,101724.98
2019-02-24T00:27:02.281Z,101715.48
2019-02-24T00:29:31.019Z,101713.09
2019-02-24T00:31:59.742Z,101714.57
2019-02-24T00:34:28.543Z,101709.47
2019-02-24T00:36:57.270Z,101710.28
2019-02-24T00:39:51.354Z,101716.39
2019-02-24T00:42:20.087Z,101705.31
2019-02-24T00:44:48.867Z,101717.85
2019-02-24T00:47:17.603Z,101717.85
2019-02-24T00:49:46.342Z,101706.80
2019-02-24T00:52:15.164Z,101709.07
2019-02-24T00:54:44.897Z,101709.07
2019-02-24T00:57:13.636Z,101700.89
2019-02-24T00:59:42.525Z,101701.97
2019-02-24T01:02:11.265Z,101711.05
2019-02-24T01:04:39.990Z,101708.16
2019-02-24T01:07:08.762Z,101704.45
2019-02-24T01:09:37.489Z,101704.45
2019-02-24T01:12:06.494Z,101709.59
2019-02-24T01:14:35.465Z,101710.03
2019-02-24T01:17:04.396Z,101697.66
2019-02-24T01:19:33.137Z,101697.66
2019-02-24T01:22:01.924Z,101695.45
2019-02-24T01:24:30.652Z,101695.45
2019-02-24T01:26:59.376Z,101699.27
2019-02-24T01:29:28.195Z,101703.43
2019-02-24T01:31:56.920Z,101704.26
2019-02-24T01:34:25.641Z,101704.06
2019-02-24T01:36:54.527Z,101703.84
2019-02-24T01:39:23.253Z,101705.21
2019-02-24T01:41:51.972Z,101713.17
2019-02-24T01:44:20.767Z,101715.55
2019-02-24T01:46:49.485Z,101705.45
2019-02-24T01:49:18.209Z,101710.81
2019-02-24T01:51:47.017Z,101702.55
2019-02-24T01:54:15.754Z,101702.55
2019-02-24T01:56:44.479Z,101709.12
2019-02-24T01:59:13.299Z,101711.20
2019-02-24T02:01:41.997Z,101700.67
2019-02-24T02:04:10.722Z,101700.67
2019-02-24T02:06:39.532Z,101698.20
2019-02-24T02:09:08.264Z,101706.70
2019-02-24T02:11:37.029Z,101693.97
2019-02-24T02:14:09.194Z,101695.03
2019-02-24T02:16:38.002Z,101695.83
2019-02-24T02:19:06.725Z,101683.50
2019-02-24T02:21:35.494Z,101687.52
2019-02-24T02:24:04.225Z,101683.44
2019-02-24T02:26:32.946Z,101682.91
2019-02-24T02:29:01.735Z,101682.91
2019-02-24T02:31:30.465Z,101682.38
2019-02-24T02:33:59.201Z,101684.77
2019-02-24T02:36:28.003Z,101684.77
2019-02-24T02:38:56.735Z,101684.63
2019-02-24T02:41:25.457Z,101679.34
2019-02-24T02:43:58.997Z,101673.87
2019-02-24T02:46:27.734Z,101678.97
2019-02-24T02:48:56.463Z,101684.41
2019-02-24T02:51:25.246Z,101686.22
2019-02-24T02:53:53.994Z,101693.37
2019-02-24T02:56:22.725Z,101683.39
2019-02-24T02:58:54.437Z,101689.09
2019-02-24T03:01:22.009Z,101676.92
2019-02-24T03:03:50.731Z,101676.92
2019-02-24T03:06:23.942Z,101680.64
2019-02-24T03:08:53.966Z,101680.63
2019-02-24T03:11:22.705Z,101677.22
2019-02-24T03:13:51.580Z,101685.45
2019-02-24T03:16:23.105Z,101687.80
2019-02-24T03:18:52.137Z,101695.55
2019-02-24T03:21:20.949Z,101684.17
2019-02-24T03:23:49.744Z,101684.17
2019-02-24T03:26:18.619Z,101684.09
2019-02-24T03:28:47.426Z,101683.39
2019-02-24T03:31:16.155Z,101683.39
2019-02-24T03:33:45.311Z,101688.89
2019-02-24T03:36:14.132Z,101683.18
2019-02-24T03:38:42.863Z,101686.05
2019-02-24T03:41:11.589Z,101686.05
2019-02-24T03:43:40.361Z,101684.98
2019-02-24T03:46:09.086Z,101684.98
2019-02-24T03:48:37.811Z,101681.37
2019-02-24T03:51:06.725Z,101685.27
2019-02-24T03:53:35.449Z,101683.51
2019-02-24T03:56:04.210Z,101683.71
2019-02-24T03:58:33.056Z,101683.30
2019-02-24T04:01:01.788Z,101683.71
2019-02-24T04:03:30.938Z,101691.14
2019-02-24T04:05:59.827Z,101692.56
2019-02-24T04:08:28.550Z,101692.36
2019-02-24T04:10:57.304Z,101698.88
2019-02-24T04:13:26.079Z,101695.93
2019-02-24T04:15:54.811Z,101696.54
2019-02-24T04:18:23.563Z,101694.97
2019-02-24T04:20:52.339Z,101703.58
2019-02-24T04:23:21.066Z,101694.66
2019-02-24T04:25:49.805Z,101701.28
2019-02-24T04:28:18.590Z,101700.00
2019-02-24T04:30:47.321Z,101697.05
2019-02-24T04:33:16.055Z,101693.12
2019-02-24T04:35:45.293Z,101692.62
2019-02-24T04:38:15.985Z,101699.25
2019-02-24T04:40:44.487Z,101699.25
2019-02-24T04:43:13.272Z,101691.14
2019-02-24T04:45:42.008Z,101693.54
2019-02-24T04:48:10.732Z,101697.55
2019-02-24T04:50:39.538Z,101698.86
2019-02-24T04:53:08.273Z,101698.86
2019-02-24T04:55:37.293Z,101695.84
2019-02-24T04:58:06.756Z,101695.73
2019-02-24T05:00:35.464Z,101699.38
2019-02-24T05:03:04.205Z,101694.86
2019-02-24T05:05:33.083Z,101694.86
2019-02-24T05:08:01.806Z,101702.77
2019-02-24T05:10:30.536Z,101704.41
2019-02-24T05:12:59.345Z,101709.59
2019-02-24T05:15:28.078Z,101710.05
2019-02-24T05:17:56.801Z,101710.05
2019-02-24T05:20:25.788Z,101722.58
2019-02-24T05:22:54.528Z,101719.91
2019-02-24T05:25:23.284Z,101719.91
2019-02-24T05:27:52.161Z,101726.98
2019-02-24T05:30:20.882Z,101730.34
2019-02-24T05:32:49.611Z,101728.59
2019-02-24T05:35:18.817Z,101724.58
2019-02-24T05:37:47.555Z,101720.72
2019-02-24T05:40:16.306Z,101720.72
2019-02-24T05:42:45.196Z,101720.77
2019-02-24T05:45:13.919Z,101722.52
2019-02-24T05:47:42.664Z,101717.13
2019-02-24T05:50:11.556Z,101729.03
2019-02-24T05:52:40.301Z,101729.03
2019-02-24T05:55:10.484Z,101724.08
2019-02-24T05:57:40.025Z,101740.03
2019-02-24T06:00:08.856Z,101740.03
2019-02-24T06:02:37.610Z,101740.28
2019-02-24T06:05:06.684Z,101736.27
2019-02-24T06:07:35.425Z,101747.06
2019-02-24T06:10:04.558Z,101747.06
2019-02-24T06:12:35.420Z,101739.52
2019-02-24T06:15:05.557Z,101742.42
2019-02-24T06:17:34.289Z,101745.08
2019-02-24T06:20:04.481Z,101742.86
2019-02-24T06:22:33.374Z,101742.86
2019-02-24T06:25:02.100Z,101755.61
2019-02-24T06:27:30.888Z,101755.61
2019-02-24T06:30:04.902Z,101761.23
2019-02-24T06:32:30.071Z,101759.42
2019-02-24T06:34:59.047Z,101763.05
2019-02-24T06:37:27.797Z,101761.27
2019-02-24T06:39:56.541Z,101757.11
2019-02-24T06:42:35.333Z,101757.59
2019-02-24T06:45:04.467Z,101765.98
2019-02-24T06:47:33.207Z,101768.88
2019-02-24T06:50:02.096Z,101764.42
2019-02-24T06:52:30.829Z,101766.87
2019-02-24T06:54:59.561Z,101775.31
2019-02-24T06:57:28.327Z,101770.95
2019-02-24T06:59:57.063Z,101776.51
2019-02-24T07:02:25.805Z,101774.55
2019-02-24T07:04:54.837Z,101776.72
2019-02-24T07:07:23.578Z,101778.98
2019-02-24T07:09:52.326Z,101789.84
2019-02-24T07:12:21.223Z,101786.29
2019-02-24T07:14:49.979Z,101786.16
2019-02-24T07:17:18.718Z,101786.67
2019-02-24T07:19:47.613Z,101786.84
2019-02-24T07:22:20.747Z,101786.80
2019-02-24T07:24:49.570Z,101782.02
2019-02-24T07:27:18.473Z,101779.28
2019-02-24T07:29:47.203Z,101777.55
2019-02-24T07:32:15.930Z,101785.05
2019-02-24T07:34:45.201Z,101782.67
2019-02-24T07:37:13.926Z,101780.94
2019-02-24T07:39:42.666Z,101772.11
2019-02-24T07:42:12.021Z,101771.14
2019-02-24T07:44:40.765Z,101776.91
2019-02-24T07:47:09.494Z,101778.83
2019-02-24T07:49:38.271Z,101776.59
2019-02-24T07:52:07.022Z,101773.25
2019-02-24T07:54:35.747Z,101776.30
2019-02-24T07:57:04.744Z,101778.55
2019-02-24T07:59:33.479Z,101775.31
2019-02-24T08:02:02.228Z,101777.58
2019-02-24T08:04:31.420Z,101773.73
2019-02-24T08:07:00.287Z,101777.27
2019-02-24T08:09:29.026Z,101777.54
2019-02-24T08:11:57.838Z,101780.74
2019-02-24T08:14:26.561Z,101780.74
2019-02-24T08:16:55.297Z,101780.25
2019-02-24T08:19:24.191Z,101777.22
2019-02-24T08:21:52.965Z,101772.27
2019-02-24T08:24:21.689Z,101776.26
2019-02-24T08:26:50.994Z,101780.61
2019-02-24T08:29:19.725Z,101781.91
2019-02-24T08:31:48.450Z,101773.25
2019-02-24T08:34:17.495Z,101780.61
2019-02-24T08:36:46.262Z,101769.37
2019-02-24T08:39:16.055Z,101778.03
2019-02-24T08:41:44.849Z,101768.27
2019-02-24T08:44:13.579Z,101761.98
2019-02-24T08:46:42.323Z,101765.21
2019-02-24T08:49:11.077Z,101763.73
2019-02-24T08:51:39.828Z,101767.89
2019-02-24T08:54:08.566Z,101761.63
2019-02-24T08:56:37.377Z,101762.95
2019-02-24T08:59:06.109Z,101760.69
2019-02-24T09:01:34.839Z,101759.98
2019-02-24T09:04:03.615Z,101754.84
2019-02-24T09:06:32.341Z,101753.94
2019-02-24T09:09:01.070Z,101753.94
2019-02-24T09:11:29.948Z,101754.99
2019-02-24T09:14:01.647Z,101749.43
2019-02-24T09:16:30.385Z,101751.72
2019-02-24T09:18:59.171Z,101759.47
2019-02-24T09:21:27.913Z,101757.19
2019-02-24T09:23:57.017Z,101756.75
2019-02-24T09:26:25.982Z,101755.94
2019-02-24T09:28:54.785Z,101753.05
2019-02-24T09:31:23.529Z,101752.64
2019-02-24T09:33:52.336Z,101757.67
2019-02-24T09:36:21.060Z,101751.16
2019-02-24T09:38:49.819Z,101752.02
2019-02-24T09:41:18.784Z,101749.91
2019-02-24T09:43:47.495Z,101746.33
2019-02-24T09:46:16.239Z,101747.33
2019-02-24T09:48:45.310Z,101741.27
2019-02-24T09:51:14.031Z,101743.95
2019-02-24T09:53:42.761Z,101735.30
2019-02-24T09:56:11.567Z,101735.44
2019-02-24T09:58:40.285Z,101723.25
2019-02-24T10:01:10.935Z,101726.06
2019-02-24T10:03:39.513Z,101719.72
2019-02-24T10:06:11.062Z,101716.53
2019-02-24T10:08:39.775Z,101714.34
2019-02-24T10:11:08.690Z,101715.64
2019-02-24T10:13:37.437Z,101705.80
2019-02-24T10:16:06.150Z,101704.46
2019-02-24T10:18:34.954Z,101704.92
2019-02-24T10:21:03.671Z,101701.80
2019-02-24T10:23:34.424Z,101694.45
2019-02-24T10:26:04.627Z,101693.40
2019-02-24T10:28:33.360Z,101691.23
2019-02-24T10:31:02.123Z,101695.99
2019-02-24T10:33:31.015Z,101691.36
2019-02-24T10:36:02.720Z,101681.06
2019-02-24T10:38:31.455Z,101681.06
2019-02-24T10:41:00.304Z,101679.92
2019-02-24T10:43:29.047Z,101677.46
2019-02-24T10:45:57.782Z,101670.97
2019-02-24T10:48:26.653Z,101670.97
2019-02-24T10:50:55.383Z,101673.22
2019-02-24T10:53:24.107Z,101677.16
2019-02-24T10:55:52.997Z,101670.68
2019-02-24T10:58:21.769Z,101668.35
2019-02-24T11:00:50.466Z,101668.35
2019-02-24T11:03:19.401Z,101663.34
2019-02-24T11:05:48.138Z,101650.91
2019-02-24T11:08:16.889Z,101650.91
2019-02-24T11:10:45.862Z,101651.03
2019-02-24T11:13:14.639Z,101647.80
2019-02-24T11:15:43.332Z,101639.34
2019-02-24T11:18:12.322Z,101624.66
2019-02-24T11:20:41.052Z,101624.66
2019-02-24T11:23:09.792Z,101623.62
2019-02-24T11:25:39.008Z,101623.62
2019-02-24T11:28:07.735Z,101625.45
2019-02-24T11:30:36.568Z,101622.33
2019-02-24T11:33:05.434Z,101621.17
2019-02-24T11:35:34.255Z,101618.14
2019-02-24T11:38:02.985Z,101615.03
2019-02-24T11:40:31.827Z,101612.36
2019-02-24T11:43:00.553Z,101601.78
2019-02-24T11:45:29.284Z,101605.10
2019-02-24T11:47:58.178Z,101606.78
2019-02-24T11:50:26.922Z,101599.95
2019-02-24T11:52:55.652Z,101598.95
2019-02-24T11:55:25.146Z,101597.50
2019-02-24T11:57:53.920Z,101593.82
2019-02-24T12:00:22.664Z,101591.52
2019-02-24T12:02:56.568Z,101594.14
2019-02-24T12:05:25.292Z,101593.34
2019-02-24T12:07:54.018Z,101585.42
2019-02-24T12:10:23.188Z,101587.14
2019-02-24T12:12:51.922Z,101581.75
2019-02-24T12:15:20.657Z,101576.55
2019-02-24T12:17:49.444Z,101575.19
2019-02-24T12:20:18.168Z,101573.92
2019-02-24T12:22:47.497Z,101567.44
2019-02-24T12:25:16.736Z,101562.72
2019-02-24T12:27:45.464Z,101560.82
2019-02-24T12:30:15.985Z,101560.33
2019-02-24T12:32:44.849Z,101556.63
2019-02-24T12:35:13.897Z,101554.50
2019-02-24T12:37:42.599Z,101547.05
2019-02-24T12:40:15.213Z,101544.53
2019-02-24T12:42:43.952Z,101544.70
2019-02-24T12:45:12.968Z,101536.39
2019-02-24T12:47:41.861Z,101539.89
2019-02-24T12:50:15.410Z,101537.49
2019-02-24T12:52:44.336Z,101541.02
2019-02-24T12:55:13.893Z,101537.45
2019-02-24T12:57:43.653Z,101515.63
2019-02-24T13:00:21.275Z,101528.05
2019-02-24T13:02:50.097Z,101524.91
2019-02-24T13:05:20.171Z,101516.22
2019-02-24T13:07:49.120Z,101516.61
2019-02-24T13:10:19.056Z,101514.01
2019-02-24T13:12:47.780Z,101509.66
2019-02-24T13:15:18.107Z,101510.46
2019-02-24T13:17:49.867Z,101511.49
2019-02-24T13:20:18.589Z,101510.31
2019-02-24T13:22:56.016Z,101514.30
2019-02-24T13:25:24.864Z,101505.55
2019-02-24T13:27:53.586Z,101508.82
2019-02-24T13:30:22.442Z,101509.10
2019-02-24T13:32:51.148Z,101504.50
2019-02-24T13:35:19.869Z,101501.53
2019-02-24T13:37:48.719Z,101500.91
2019-02-24T13:40:17.743Z,101493.36
2019-02-24T13:42:46.476Z,101487.20
2019-02-24T13:45:20.818Z,101493.35
2019-02-24T13:47:50.716Z,101488.98
2019-02-24T13:50:20.255Z,101491.80
2019-02-24T13:52:49.130Z,101495.95
2019-02-24T13:55:17.961Z,101491.43
2019-02-24T13:57:46.713Z,101491.78
2019-02-24T14:00:22.511Z,101490.08
2019-02-24T14:02:51.248Z,101493.95
2019-02-24T14:05:19.971Z,101483.21
2019-02-24T14:07:48.758Z,101491.45
2019-02-24T14:10:17.483Z,101490.55
2019-02-24T14:12:46.273Z,101493.22
2019-02-24T14:15:16.665Z,101491.47
2019-02-24T14:17:45.385Z,101488.67
2019-02-24T14:20:15.527Z,101483.57
2019-02-24T14:22:44.490Z,101482.00
2019-02-24T14:25:14.219Z,101483.77
2019-02-24T14:27:42.947Z,101487.27
2019-02-24T14:30:16.272Z,101487.11
2019-02-24T14:32:45.054Z,101489.20
2019-02-24T14:35:22.664Z,101490.66
2019-02-24T14:37:51.415Z,101489.00
2019-02-24T14:40:21.754Z,101487.16
2019-02-24T14:42:52.352Z,101491.36
2019-02-24T14:45:22.764Z,101487.60
2019-02-24T14:47:51.480Z,101494.66
2019-02-24T14:50:20.351Z,101495.77
2019-02-24T14:52:49.075Z,101490.42
2019-02-24T14:55:17.804Z,101491.84
2019-02-24T14:57:46.589Z,101486.33
2019-02-24T15:00:22.829Z,101497.90
2019-02-24T15:02:51.784Z,101485.08
2019-02-24T15:05:20.498Z,101479.16
2019-02-24T15:07:50.288Z,101486.92
2019-02-24T15:10:20.952Z,101489.59
2019-02-24T15:12:49.674Z,101483.70
2019-02-24T15:15:20.498Z,101489.08
2019-02-24T15:17:49.446Z,101482.73
2019-02-24T15:20:21.546Z,101483.66
2019-02-24T15:22:50.276Z,101484.42
2019-02-24T15:25:19.728Z,101481.03
2019-02-24T15:27:48.533Z,101481.22
2019-02-24T15:30:35.221Z,101489.41
2019-02-24T15:33:03.941Z,101485.71
2019-02-24T15:35:32.654Z,101492.45
2019-02-24T15:38:01.547Z,101493.08
2019-02-24T15:40:30.275Z,101495.09
2019-02-24T15:42:59.019Z,101490.44
2019-02-24T15:45:28.878Z,101493.21
2019-02-24T15:47:57.599Z,101502.41
2019-02-24T15:50:26.351Z,101493.73
2019-02-24T15:52:55.137Z,101493.73
2019-02-24T15:55:23.864Z,101490.68
2019-02-24T15:57:52.600Z,101496.65
2019-02-24T16:00:23.817Z,101496.59
2019-02-24T16:03:01.200Z,101503.64
2019-02-24T16:05:23.008Z,101507.24
2019-02-24T16:07:51.899Z,101506.89
2019-02-24T16:10:21.725Z,101511.29
2019-02-24T16:12:50.451Z,101509.75
2019-02-24T16:15:21.320Z,101511.98
2019-02-24T16:17:50.046Z,101513.32
2019-02-24T16:20:21.378Z,101512.12
2019-02-24T16:22:50.168Z,101515.70
2019-02-24T16:25:18.887Z,101515.02
2019-02-24T16:27:47.611Z,101520.38
2019-02-24T16:30:17.294Z,101523.97
2019-02-24T16:32:46.013Z,101524.47
2019-02-24T16:35:16.439Z,101530.72
2019-02-24T16:37:45.610Z,101528.77
2019-02-24T16:40:20.085Z,101529.13
2019-02-24T16:42:48.805Z,101530.61
2019-02-24T16:45:17.803Z,101531.14
2019-02-24T16:47:46.530Z,101534.90
2019-02-24T16:50:17.254Z,101537.47
2019-02-24T16:52:46.425Z,101536.03
2019-02-24T16:55:17.307Z,101536.53
2019-02-24T16:57:46.030Z,101538.43
2019-02-24T17:00:18.042Z,101541.52
2019-02-24T17:02:46.777Z,101544.42
2019-02-24T17:05:15.602Z,101544.22
2019-02-24T17:07:44.384Z,101546.89
2019-02-24T17:10:15.863Z,101544.77
2019-02-24T17:12:44.598Z,101544.80
2019-02-24T17:15:14.127Z,101544.20
2019-02-24T17:17:42.950Z,101540.38
2019-02-24T17:20:14.275Z,101537.64
2019-02-24T17:22:43.240Z,101535.06
2019-02-24T17:25:11.969Z,101538.73
2019-02-24T17:27:40.726Z,101539.41
2019-02-24T17:30:12.274Z,101538.13
2019-02-24T17:32:41.014Z,101538.73
2019-02-24T17:35:10.444Z,101534.47
2019-02-24T17:37:39.324Z,101532.56
2019-02-24T17:40:16.382Z,101535.95
2019-02-24T17:42:45.187Z,101532.56
2019-02-24T17:45:14.414Z,101533.52
2019-02-24T17:47:43.279Z,101534.90
2019-02-24T17:50:14.231Z,101538.01
2019-02-24T17:52:42.987Z,101545.85
2019-02-24T17:55:13.718Z,101545.23
2019-02-24T17:57:43.765Z,101544.89
2019-02-24T18:00:19.124Z,101537.50
2019-02-24T18:02:48.239Z,101534.28
2019-02-24T18:05:16.961Z,101535.31
2019-02-24T18:07:45.907Z,101538.84
2019-02-24T18:10:15.017Z,101543.47
2019-02-24T18:12:43.751Z,101543.47
2019-02-24T18:15:13.175Z,101539.91
2019-02-24T18:17:42.049Z,101552.13
2019-02-24T18:20:18.696Z,101548.61
2019-02-24T18:22:47.601Z,101544.07
2019-02-24T18:25:16.322Z,101545.70
2019-02-24T18:27:45.052Z,101544.50
2019-02-24T18:30:30.117Z,101545.74
2019-02-24T18:32:58.839Z,101541.14
2019-02-24T18:35:27.592Z,101540.66
2019-02-24T18:37:56.585Z,101542.47
2019-02-24T18:40:25.308Z,101544.52
2019-02-24T18:43:00.176Z,101544.52
2019-02-24T18:45:25.293Z,101542.52
2019-02-24T18:47:54.055Z,101544.52
2019-02-24T18:50:22.812Z,101549.27
2019-02-24T18:52:51.611Z,101551.17
2019-02-24T18:55:20.339Z,101548.53
2019-02-24T18:57:49.163Z,101541.92
2019-02-24T19:00:20.447Z,101554.69
2019-02-24T19:02:49.202Z,101552.30
2019-02-24T19:05:17.917Z,101552.75
2019-02-24T19:07:46.686Z,101552.78
2019-02-24T19:10:17.328Z,101544.22
2019-02-24T19:12:46.058Z,101544.22
2019-02-24T19:15:17.341Z,101552.19
2019-02-24T19:17:46.070Z,101553.95
2019-02-24T19:20:19.543Z,101558.87
2019-02-24T19:22:48.881Z,101547.28
2019-02-24T19:25:17.714Z,101556.97
2019-02-24T19:27:46.492Z,101555.50
2019-02-24T19:30:19.295Z,101550.66
2019-02-24T19:32:48.042Z,101561.30
2019-02-24T19:35:17.783Z,101558.63
2019-02-24T19:37:46.774Z,101557.19
2019-02-24T19:40:19.622Z,101554.61
2019-02-24T19:42:48.352Z,101561.80
2019-02-24T19:45:19.046Z,101558.33
2019-02-24T19:47:47.774Z,101558.33
2019-02-24T19:50:17.710Z,101561.05
2019-02-24T19:52:48.086Z,101552.38
2019-02-24T19:55:17.712Z,101562.62
2019-02-24T19:57:46.437Z,101557.33
2019-02-24T20:00:24.281Z,101560.72
2019-02-24T20:02:53.110Z,101556.49
2019-02-24T20:05:22.889Z,101556.49
2019-02-24T20:07:51.713Z,101564.20
2019-02-24T20:10:28.177Z,101564.83
2019-02-24T20:12:57.014Z,101564.23
2019-02-24T20:15:25.744Z,101564.56
2019-02-24T20:17:54.565Z,101560.38
2019-02-24T20:20:23.421Z,101561.19
2019-02-24T20:22:54.698Z,101562.14
2019-02-24T20:25:23.943Z,101557.70
2019-02-24T20:27:52.743Z,101555.14
2019-02-24T20:30:32.722Z,101552.78
2019-02-24T20:33:01.512Z,101550.14
2019-02-24T20:35:30.251Z,101550.44
2019-02-24T20:37:58.984Z,101552.38
2019-02-24T20:40:28.885Z,101558.66
2019-02-24T20:42:57.597Z,101554.00
2019-02-24T20:45:26.326Z,101555.80
2019-02-24T20:47:55.403Z,101551.64
2019-02-24T20:50:26.682Z,101550.00
2019-02-24T20:52:55.409Z,101550.00
2019-02-24T20:55:24.204Z,101546.51
2019-02-24T20:57:52.938Z,101543.72
2019-02-24T21:00:31.354Z,101546.59
2019-02-24T21:03:01.443Z,101536.81
2019-02-24T21:05:31.194Z,101536.81
2019-02-24T21:08:00.374Z,101544.45
2019-02-24T21:10:29.103Z,101544.45
2019-02-24T21:12:57.836Z,101537.66
2019-02-24T21:15:26.759Z,101541.02
2019-02-24T21:17:55.545Z,101533.89
2019-02-24T21:20:29.461Z,101533.89
2019-02-24T21:22:58.396Z,101536.93
2019-02-24T21:25:27.122Z,101537.27
2019-02-24T21:27:55.855Z,101537.46
2019-02-24T21:30:24.737Z,101540.35
2019-02-24T21:32:53.484Z,101537.66
2019-02-24T21:35:22.207Z,101536.05
2019-02-24T21:37:51.584Z,101537.31
2019-02-24T21:40:20.711Z,101536.38
2019-02-24T21:42:49.463Z,101536.33
2019-02-24T21:45:20.675Z,101544.63
2019-02-24T21:47:49.409Z,101552.18
2019-02-24T21:50:18.236Z,101557.13
2019-02-24T21:52:47.141Z,101557.41
2019-02-24T21:55:15.969Z,101561.06
2019-02-24T21:57:44.820Z,101565.44
2019-02-24T22:00:19.046Z,101560.84
2019-02-24T22:02:47.883Z,101564.08
2019-02-24T22:05:16.688Z,101560.70
2019-02-24T22:07:46.007Z,101560.36
2019-02-24T22:10:15.939Z,101557.03
2019-02-24T22:12:44.658Z,101561.10
2019-02-24T22:15:26.627Z,101564.32
2019-02-24T22:17:55.359Z,101566.38
2019-02-24T22:20:24.086Z,101572.80
2019-02-24T22:22:52.963Z,101571.81
2019-02-24T22:25:21.696Z,101567.14
2019-02-24T22:27:50.439Z,101568.61
2019-02-24T22:30:23.377Z,101564.30
2019-02-24T22:32:52.215Z,101561.41
2019-02-24T22:35:20.937Z,101560.40
2019-02-24T22:37:49.726Z,101566.64
2019-02-24T22:40:18.460Z,101566.81
2019-02-24T22:42:47.692Z,101557.56
2019-02-24T22:45:18.735Z,101554.85
2019-02-24T22:47:47.568Z,101556.16
2019-02-24T22:50:17.007Z,101553.44
2019-02-24T22:52:46.354Z,101557.46
2019-02-24T22:55:16.475Z,101553.73
2019-02-24T22:57:45.316Z,101559.69
2019-02-24T23:00:30.851Z,101559.53
2019-02-24T23:02:59.579Z,101555.37
2019-02-24T23:05:28.519Z,101554.08
2019-02-24T23:07:57.415Z,101552.33
2019-02-24T23:10:26.141Z,101556.81
2019-02-24T23:12:54.867Z,101550.09
2019-02-24T23:15:23.770Z,101555.34
2019-02-24T23:17:52.535Z,101550.89
2019-02-24T23:20:21.284Z,101550.89
2019-02-24T23:22:50.174Z,101551.84
2019-02-24T23:25:18.908Z,101552.29
2019-02-24T23:27:47.642Z,101550.91
2019-02-24T23:30:16.536Z,101550.91
2019-02-24T23:32:45.280Z,101562.76
2019-02-24T23:35:14.013Z,101544.80
2019-02-24T23:37:42.791Z,101551.86
2019-02-24T23:40:11.518Z,101546.06
2019-02-24T23:42:40.242Z,101541.76
2019-02-24T23:45:11.305Z,101541.76
2019-02-24T23:47:40.220Z,101541.27
2019-02-24T23:50:10.364Z,101546.44
2019-02-24T23:52:39.142Z,101547.73
2019-02-24T23:55:09.069Z,101517.75
2019-02-24T23:57:37.794Z,101528.95
